createdAt,value
2018-11-06T00:01:42.272Z,24.93
2018-11-06T00:04:09.683Z,23.23
2018-11-06T00:06:37.122Z,23.63
2018-11-06T00:09:06.587Z,24.00
2018-11-06T01:12:09.471Z,35.37
2018-11-06T01:14:36.908Z,51.70
2018-11-06T01:17:04.552Z,43.27
2018-11-06T01:19:31.980Z,43.27
2018-11-06T01:21:59.445Z,37.03
2018-11-06T01:24:26.880Z,55.07
2018-11-06T01:26:54.287Z,40.93
2018-11-06T01:29:21.723Z,46.83
2018-11-06T01:31:49.192Z,35.00
2018-11-06T01:34:16.633Z,33.53
2018-11-06T01:36:44.036Z,28.80
2018-11-06T01:39:11.476Z,31.13
2018-11-06T01:41:38.919Z,49.37
2018-11-06T01:44:06.385Z,30.40
2018-11-06T01:46:33.832Z,35.70
2018-11-06T01:49:01.246Z,40.23
2018-11-06T01:51:28.690Z,35.33
2018-11-06T01:53:56.122Z,31.33
2018-11-06T01:56:23.527Z,33.23
2018-11-06T01:58:50.988Z,33.50
2018-11-06T02:01:18.428Z,43.97
2018-11-06T02:03:45.868Z,41.13
2018-11-06T02:06:13.271Z,46.43
2018-11-06T02:08:40.701Z,31.93
2018-11-06T02:11:08.140Z,30.63
2018-11-06T02:13:35.603Z,31.77
2018-11-06T02:16:03.030Z,30.00
2018-11-06T02:18:30.446Z,41.83
2018-11-06T02:20:57.971Z,29.40
2018-11-06T02:23:25.416Z,28.57
2018-11-06T02:25:52.829Z,32.00
2018-11-06T02:28:20.282Z,28.97
2018-11-06T02:30:47.728Z,28.60
2018-11-06T02:33:15.179Z,27.13
2018-11-06T02:35:42.603Z,26.83
2018-11-06T02:38:10.103Z,28.20
2018-11-06T02:40:37.557Z,22.83
2018-11-06T02:43:04.967Z,27.17
2018-11-06T02:45:32.400Z,27.73
2018-11-06T02:47:59.821Z,25.03
2018-11-06T02:50:27.261Z,23.60
2018-11-06T02:52:54.695Z,25.33
2018-11-06T02:55:22.130Z,28.20
2018-11-06T02:57:49.547Z,20.73
2018-11-06T03:00:16.885Z,21.47
2018-11-06T03:02:44.340Z,20.27
2018-11-06T03:05:11.674Z,20.33
2018-11-06T03:07:39.037Z,19.20
2018-11-06T03:10:06.954Z,21.00
2018-11-06T03:12:34.319Z,21.07
2018-11-06T03:15:01.693Z,20.27
2018-11-06T03:17:29.074Z,21.57
2018-11-06T03:19:56.436Z,57.47
2018-11-06T03:22:23.819Z,24.97
2018-11-06T03:24:51.164Z,59.13
2018-11-06T03:27:18.546Z,40.17
2018-11-06T03:29:45.889Z,24.00
2018-11-06T03:32:13.230Z,25.50
2018-11-06T03:34:40.587Z,23.30
2018-11-06T03:37:07.963Z,23.17
2018-11-06T03:39:35.305Z,26.23
2018-11-06T03:42:02.663Z,22.00
2018-11-06T03:44:30.051Z,26.77
2018-11-06T03:46:57.415Z,22.73
2018-11-06T03:49:24.763Z,23.37
2018-11-06T03:51:52.117Z,22.83
2018-11-06T03:54:19.455Z,29.40
2018-11-06T03:56:46.828Z,24.90
2018-11-06T03:59:14.177Z,27.40
2018-11-06T04:01:41.519Z,20.60
2018-11-06T04:04:08.899Z,19.43
2018-11-06T04:06:36.261Z,21.57
2018-11-06T04:09:07.064Z,18.33
2018-11-06T04:11:34.416Z,20.13
2018-11-06T04:14:01.772Z,21.43
2018-11-06T04:16:29.126Z,20.00
2018-11-06T04:18:56.466Z,21.03
2018-11-06T04:21:23.820Z,20.07
2018-11-06T04:23:51.161Z,21.33
2018-11-06T04:26:18.543Z,19.10
2018-11-06T04:28:45.881Z,20.07
2018-11-06T04:31:13.230Z,19.77
2018-11-06T04:33:40.598Z,23.93
2018-11-06T04:36:07.958Z,23.53
2018-11-06T04:38:35.315Z,19.50
2018-11-06T04:41:02.664Z,19.30
2018-11-06T04:43:30.034Z,18.20
2018-11-06T04:45:57.359Z,18.70
2018-11-06T04:48:24.711Z,18.20
2018-11-06T04:50:52.052Z,20.07
2018-11-06T04:53:19.413Z,20.47
2018-11-06T04:55:46.750Z,19.63
2018-11-06T04:58:14.108Z,18.80
2018-11-06T05:00:41.483Z,20.60
2018-11-06T05:03:08.814Z,22.00
2018-11-06T05:05:36.191Z,19.20
2018-11-06T05:08:03.552Z,17.90
2018-11-06T05:10:30.891Z,20.97
2018-11-06T05:12:58.275Z,23.70
2018-11-06T05:15:25.640Z,21.07
2018-11-06T05:17:53.034Z,26.03
2018-11-06T05:20:20.399Z,22.30
2018-11-06T05:22:47.742Z,20.00
2018-11-06T05:25:15.179Z,20.47
2018-11-06T05:27:42.470Z,18.57
2018-11-06T05:30:09.821Z,20.97
2018-11-06T05:32:37.194Z,20.70
2018-11-06T05:35:05.672Z,22.43
2018-11-06T05:37:33.042Z,21.57
2018-11-06T05:41:09.253Z,20.83
2018-11-06T05:43:36.613Z,22.20
2018-11-06T05:46:03.983Z,20.87
2018-11-06T05:48:31.352Z,22.10
2018-11-06T05:50:58.781Z,21.87
2018-11-06T05:53:26.134Z,19.83
2018-11-06T05:55:53.499Z,23.43
2018-11-06T05:58:20.865Z,22.93
2018-11-06T06:00:48.232Z,20.87
2018-11-06T06:03:15.599Z,20.97
2018-11-06T06:05:42.934Z,22.17
2018-11-06T06:08:10.298Z,24.80
2018-11-06T06:20:37.660Z,23.50
2018-11-06T06:23:05.251Z,21.50
2018-11-06T06:25:32.589Z,21.97
2018-11-06T06:27:59.936Z,24.00
2018-11-06T06:30:27.292Z,20.70
2018-11-06T06:32:54.601Z,20.73
2018-11-06T06:35:21.954Z,19.57
2018-11-06T06:37:49.260Z,19.27
2018-11-06T06:40:16.664Z,19.50
2018-11-06T06:42:43.929Z,18.63
2018-11-06T06:45:11.645Z,20.20
2018-11-06T06:47:38.974Z,19.67
2018-11-06T06:50:07.936Z,19.60
2018-11-06T06:52:35.306Z,20.33
2018-11-06T06:55:02.773Z,20.37
2018-11-06T06:57:30.000Z,19.90
2018-11-06T06:59:59.730Z,22.10
2018-11-06T07:02:27.185Z,24.80
2018-11-06T07:04:54.531Z,22.17
2018-11-06T07:07:21.873Z,21.77
2018-11-06T07:09:49.220Z,19.27
2018-11-06T07:12:16.554Z,22.30
2018-11-06T07:14:43.881Z,22.27
2018-11-06T07:17:11.247Z,20.60
2018-11-06T07:19:38.577Z,25.47
2018-11-06T07:22:05.909Z,24.20
2018-11-06T07:24:33.251Z,27.00
2018-11-06T07:27:00.611Z,28.63
2018-11-06T07:29:27.977Z,28.77
2018-11-06T07:31:55.325Z,25.40
2018-11-06T07:34:22.753Z,23.63
2018-11-06T07:36:50.080Z,31.90
2018-11-06T07:39:17.584Z,33.37
2018-11-06T07:41:44.959Z,30.13
2018-11-06T07:44:12.326Z,35.07
2018-11-06T07:46:39.681Z,34.37
2018-11-06T07:49:07.041Z,38.33
2018-11-06T07:51:34.376Z,36.20
2018-11-06T07:54:01.698Z,35.60
2018-11-06T07:56:29.028Z,34.67
2018-11-06T07:58:56.432Z,34.30
2018-11-06T08:01:23.788Z,31.90
2018-11-06T08:03:51.132Z,31.00
2018-11-06T08:06:18.604Z,29.80
2018-11-06T08:08:45.918Z,30.50
2018-11-06T08:11:13.276Z,30.70
2018-11-06T08:13:40.686Z,28.93
2018-11-06T08:16:08.065Z,27.63
2018-11-06T08:18:35.704Z,29.63
2018-11-06T08:21:03.137Z,30.90
2018-11-06T08:23:30.480Z,30.50
2018-11-06T08:25:57.813Z,29.33
2018-11-06T08:28:25.163Z,29.53
2018-11-06T08:30:52.777Z,24.97
2018-11-06T08:33:19.896Z,28.80
2018-11-06T08:35:47.268Z,25.93
2018-11-06T08:38:14.613Z,25.37
2018-11-06T08:40:41.971Z,27.57
2018-11-06T08:43:09.297Z,27.13
2018-11-06T08:45:36.673Z,27.03
2018-11-06T08:48:04.834Z,27.20
2018-11-06T08:50:32.181Z,28.17
2018-11-06T08:52:59.584Z,31.93
2018-11-06T08:55:26.934Z,27.07
2018-11-06T08:57:54.272Z,30.13
2018-11-06T09:00:21.634Z,26.97
2018-11-06T09:02:49.491Z,29.20
2018-11-06T09:05:16.820Z,29.13
2018-11-06T09:07:44.152Z,27.77
2018-11-06T09:10:11.491Z,29.60
2018-11-06T09:12:38.860Z,28.40
2018-11-06T09:15:07.601Z,28.60
2018-11-06T09:17:34.927Z,27.03
2018-11-06T09:20:02.305Z,27.23
2018-11-06T09:22:29.634Z,26.83
2018-11-06T09:24:56.994Z,30.67
2018-11-06T09:27:24.329Z,27.63
2018-11-06T09:29:51.682Z,33.37
2018-11-06T09:32:19.012Z,29.20
2018-11-06T09:34:46.405Z,29.80
2018-11-06T09:37:13.751Z,32.10
2018-11-06T09:39:41.104Z,25.43
2018-11-06T09:42:08.453Z,26.33
2018-11-06T09:44:35.794Z,25.93
2018-11-06T09:47:03.222Z,26.93
2018-11-06T09:49:30.556Z,27.67
2018-11-06T09:51:57.985Z,28.07
2018-11-06T09:54:25.260Z,28.17
2018-11-06T09:56:52.628Z,26.60
2018-11-06T09:59:19.981Z,29.53
2018-11-06T10:01:47.295Z,28.47
2018-11-06T10:04:14.652Z,28.00
2018-11-06T10:06:42.226Z,29.07
2018-11-06T10:09:09.440Z,30.40
2018-11-06T10:11:36.787Z,29.43
2018-11-06T10:14:04.438Z,29.60
2018-11-06T10:16:31.796Z,29.53
2018-11-06T10:18:59.150Z,33.87
2018-11-06T10:21:26.620Z,30.93
2018-11-06T10:23:53.879Z,35.40
2018-11-06T10:26:21.206Z,34.47
2018-11-06T10:28:48.547Z,30.70
2018-11-06T10:31:15.864Z,32.40
2018-11-06T10:33:43.216Z,30.57
2018-11-06T10:36:10.558Z,33.30
2018-11-06T10:38:37.900Z,31.47
2018-11-06T10:41:05.272Z,29.10
2018-11-06T10:43:32.633Z,32.60
2018-11-06T10:45:59.980Z,37.80
2018-11-06T10:48:27.333Z,33.13
2018-11-06T10:50:54.660Z,28.30
2018-11-06T10:53:22.022Z,23.43
2018-11-06T10:55:49.378Z,20.27
2018-11-06T10:58:16.780Z,17.57
2018-11-06T11:00:44.089Z,19.00
2018-11-06T11:03:11.439Z,20.10
2018-11-06T11:05:39.314Z,20.30
2018-11-06T11:08:06.681Z,19.90
2018-11-06T11:10:34.028Z,18.53
2018-11-06T11:13:01.640Z,19.20
2018-11-06T11:15:30.420Z,19.47
2018-11-06T11:17:58.533Z,18.23
2018-11-06T11:20:26.473Z,16.20
2018-11-06T11:22:54.271Z,19.00
2018-11-06T11:25:21.639Z,17.97
2018-11-06T11:27:49.144Z,18.23
2018-11-06T11:30:16.524Z,17.67
2018-11-06T11:32:43.933Z,15.87
2018-11-06T11:35:11.308Z,16.97
2018-11-06T11:37:38.713Z,16.30
2018-11-06T11:40:07.128Z,16.07
2018-11-06T11:42:34.481Z,18.03
2018-11-06T11:45:01.825Z,15.53
2018-11-06T11:47:29.163Z,15.37
2018-11-06T11:49:56.724Z,16.20
2018-11-06T11:52:24.103Z,16.10
2018-11-06T11:54:51.485Z,15.03
2018-11-06T11:57:18.869Z,15.83
2018-11-06T11:59:46.240Z,14.10
2018-11-06T12:02:13.639Z,13.97
2018-11-06T12:04:40.946Z,14.13
2018-11-06T12:07:08.292Z,16.23
2018-11-06T12:09:35.635Z,14.80
2018-11-06T12:12:02.961Z,12.37
2018-11-06T12:14:30.317Z,13.33
2018-11-06T12:16:58.247Z,11.93
2018-11-06T12:19:25.575Z,12.40
2018-11-06T12:21:52.910Z,14.10
2018-11-06T12:24:20.286Z,12.70
2018-11-06T12:26:47.621Z,12.83
2018-11-06T12:29:14.980Z,13.67
2018-11-06T12:31:42.326Z,13.20
2018-11-06T12:34:09.654Z,11.77
2018-11-06T12:36:37.092Z,12.27
2018-11-06T12:39:06.235Z,12.20
2018-11-06T12:41:33.587Z,10.20
2018-11-06T12:44:00.936Z,10.70
2018-11-06T12:46:28.314Z,11.60
2018-11-06T12:48:55.647Z,10.80
2018-11-06T12:51:23.002Z,13.30
2018-11-06T12:53:50.355Z,11.47
2018-11-06T12:56:17.704Z,11.93
2018-11-06T12:58:45.020Z,11.80
2018-11-06T13:01:12.360Z,11.43
2018-11-06T13:03:39.692Z,11.23
2018-11-06T13:06:07.052Z,9.87
2018-11-06T13:08:34.404Z,11.23
2018-11-06T13:11:01.816Z,10.83
2018-11-06T13:13:29.169Z,10.13
2018-11-06T13:15:56.537Z,9.97
2018-11-06T13:18:23.864Z,10.17
2018-11-06T13:20:51.184Z,11.33
2018-11-06T13:23:18.513Z,9.47
2018-11-06T13:25:45.930Z,9.77
2018-11-06T13:28:13.177Z,9.50
2018-11-06T13:30:40.533Z,10.47
2018-11-06T13:33:07.836Z,10.47
2018-11-06T13:35:35.703Z,11.23
2018-11-06T13:38:03.053Z,10.10
2018-11-06T13:40:30.371Z,9.70
2018-11-06T13:42:57.904Z,9.93
2018-11-06T13:45:25.219Z,10.53
2018-11-06T13:47:52.394Z,10.10
2018-11-06T13:50:19.764Z,9.30
2018-11-06T13:52:47.104Z,9.67
2018-11-06T13:55:14.433Z,10.00
2018-11-06T13:57:41.853Z,9.03
2018-11-06T14:00:11.323Z,9.77
2018-11-06T14:02:38.755Z,9.93
2018-11-06T14:05:06.109Z,9.00
2018-11-06T14:07:33.692Z,8.33
2018-11-06T14:10:01.075Z,9.27
2018-11-06T14:12:28.398Z,9.60
2018-11-06T14:14:55.737Z,9.50
2018-11-06T14:17:23.087Z,9.57
2018-11-06T14:19:50.443Z,8.70
2018-11-06T14:22:17.744Z,9.43
2018-11-06T14:24:45.108Z,8.77
2018-11-06T14:27:12.489Z,9.73
2018-11-06T14:29:39.756Z,8.80
2018-11-06T14:32:07.136Z,9.13
2018-11-06T14:34:34.465Z,10.77
2018-11-06T14:37:01.931Z,9.97
2018-11-06T14:39:29.306Z,10.73
2018-11-06T14:41:56.688Z,10.43
2018-11-06T14:44:24.211Z,9.40
2018-11-06T14:46:51.660Z,10.57
2018-11-06T14:49:19.056Z,10.33
2018-11-06T14:51:46.431Z,14.97
2018-11-06T14:54:13.793Z,12.03
2018-11-06T14:56:41.169Z,11.00
2018-11-06T14:59:08.524Z,14.00
2018-11-06T15:01:35.937Z,10.77
2018-11-06T15:04:03.264Z,14.00
2018-11-06T15:06:30.652Z,11.33
2018-11-06T15:08:58.069Z,12.10
2018-11-06T15:11:25.414Z,11.80
2018-11-06T15:13:52.755Z,12.43
2018-11-06T15:16:20.071Z,11.93
2018-11-06T15:18:47.396Z,10.43
2018-11-06T15:21:14.761Z,11.57
2018-11-06T15:23:42.078Z,10.83
2018-11-06T15:26:09.433Z,10.47
2018-11-06T15:28:36.833Z,11.47
2018-11-06T15:31:04.666Z,10.80
2018-11-06T15:33:32.010Z,10.57
2018-11-06T15:35:59.357Z,11.03
2018-11-06T15:38:26.685Z,10.87
2018-11-06T15:40:54.143Z,11.03
2018-11-06T15:43:21.433Z,10.43
2018-11-06T15:45:48.845Z,10.77
2018-11-06T15:48:16.204Z,10.57
2018-11-06T15:50:43.866Z,10.10
2018-11-06T15:53:11.253Z,11.63
2018-11-06T15:55:38.637Z,9.73
2018-11-06T15:58:05.962Z,10.40
2018-11-06T16:00:33.331Z,10.27
2018-11-06T16:03:00.667Z,10.80
2018-11-06T16:05:28.029Z,10.80
2018-11-06T16:07:55.389Z,10.60
2018-11-06T16:10:22.778Z,11.33
2018-11-06T16:12:50.131Z,15.43
2018-11-06T16:15:17.576Z,10.83
2018-11-06T16:17:44.928Z,10.40
2018-11-06T16:20:12.284Z,14.93
2018-11-06T16:22:39.624Z,12.87
2018-11-06T16:25:08.343Z,13.47
2018-11-06T16:27:35.698Z,13.40
2018-11-06T16:30:03.053Z,13.63
2018-11-06T16:32:30.420Z,12.17
2018-11-06T16:34:57.763Z,13.40
2018-11-06T16:37:25.108Z,13.90
2018-11-06T16:39:52.464Z,13.10
2018-11-06T16:42:19.810Z,13.33
2018-11-06T16:44:47.149Z,13.73
2018-11-06T16:47:14.911Z,13.03
2018-11-06T16:49:42.252Z,13.87
2018-11-06T16:52:09.644Z,13.53
2018-11-06T16:54:37.035Z,13.27
2018-11-06T16:57:04.398Z,14.87
2018-11-06T16:59:31.855Z,14.17
2018-11-06T17:01:59.174Z,13.57
2018-11-06T17:04:26.617Z,14.23
2018-11-06T17:06:53.940Z,13.40
2018-11-06T17:09:21.349Z,14.70
2018-11-06T17:11:48.706Z,13.67
2018-11-06T17:14:16.126Z,16.43
2018-11-06T17:16:43.571Z,13.77
2018-11-06T17:19:10.973Z,15.03
2018-11-06T17:21:38.300Z,14.40
2018-11-06T17:24:05.628Z,13.13
2018-11-06T17:26:33.057Z,16.53
2018-11-06T17:29:00.392Z,14.87
2018-11-06T17:31:27.726Z,14.57
2018-11-06T17:33:55.133Z,15.43
2018-11-06T17:36:22.536Z,15.83
2018-11-06T17:38:49.896Z,15.30
2018-11-06T17:41:17.243Z,16.10
2018-11-06T17:43:44.625Z,17.00
2018-11-06T17:46:12.020Z,18.20
2018-11-06T17:48:39.411Z,16.47
2018-11-06T17:51:06.747Z,18.60
2018-11-06T17:53:34.125Z,16.93
2018-11-06T17:56:01.561Z,17.23
2018-11-06T17:58:28.888Z,16.53
2018-11-06T18:00:56.281Z,18.00
2018-11-06T18:03:23.622Z,17.90
2018-11-06T18:05:50.999Z,27.40
2018-11-06T18:08:18.408Z,24.27
2018-11-06T18:10:45.868Z,20.63
2018-11-06T18:13:13.121Z,20.80
2018-11-06T18:15:40.467Z,22.27
2018-11-06T18:18:07.803Z,18.60
2018-11-06T18:20:35.126Z,20.20
2018-11-06T18:23:02.484Z,18.70
2018-11-06T18:25:29.965Z,19.97
2018-11-06T18:27:57.192Z,20.67
2018-11-06T18:30:24.519Z,19.43
2018-11-06T18:32:51.847Z,20.07
2018-11-06T18:35:19.228Z,24.40
2018-11-06T18:37:46.697Z,20.80
2018-11-06T18:40:14.979Z,23.10
2018-11-06T18:42:42.377Z,22.73
2018-11-06T18:45:09.704Z,20.40
2018-11-06T18:47:37.091Z,21.57
2018-11-06T18:50:05.911Z,25.07
2018-11-06T18:52:33.294Z,17.90
2018-11-06T18:55:00.625Z,20.87
2018-11-06T18:57:28.139Z,22.23
2018-11-06T18:59:55.494Z,21.30
2018-11-06T19:02:22.833Z,20.80
2018-11-06T19:04:50.215Z,20.33
2018-11-06T19:07:17.498Z,22.30
2018-11-06T19:09:44.971Z,20.70
2018-11-06T19:12:12.505Z,21.33
2018-11-06T19:14:39.884Z,21.90
2018-11-06T19:17:08.029Z,19.80
2018-11-06T19:19:35.519Z,20.13
2018-11-06T19:22:02.880Z,22.10
2018-11-06T19:24:30.310Z,21.47
2018-11-06T19:26:57.782Z,21.23
2018-11-06T19:29:25.343Z,20.50
2018-11-06T19:31:52.772Z,21.10
2018-11-06T19:34:20.229Z,18.53
2018-11-06T19:36:47.714Z,20.30
2018-11-06T19:39:15.362Z,21.80
2018-11-06T19:41:42.931Z,21.03
2018-11-06T19:44:10.391Z,21.87
2018-11-06T19:46:37.721Z,22.10
2018-11-06T19:49:05.137Z,22.63
2018-11-06T19:51:32.552Z,23.00
2018-11-06T19:54:00.345Z,24.20
2018-11-06T19:56:28.036Z,22.40
2018-11-06T19:58:55.415Z,24.03
2018-11-06T20:01:22.881Z,23.90
2018-11-06T20:03:51.212Z,24.10
2018-11-06T20:06:18.710Z,25.57
2018-11-06T20:08:47.100Z,23.80
2018-11-06T20:11:14.894Z,26.40
2018-11-06T20:13:42.537Z,24.60
2018-11-06T20:16:09.980Z,27.87
2018-11-06T20:18:37.429Z,25.23
2018-11-06T20:21:05.693Z,23.50
2018-11-06T20:23:33.076Z,24.80
2018-11-06T20:26:00.645Z,24.70
2018-11-06T20:28:28.048Z,26.03
2018-11-06T20:30:55.461Z,26.20
2018-11-06T20:33:23.831Z,24.40
2018-11-06T20:35:51.297Z,26.87
2018-11-06T20:38:18.770Z,24.73
2018-11-06T20:40:46.139Z,25.57
2018-11-06T20:43:13.699Z,25.20
2018-11-06T20:45:41.032Z,27.63
2018-11-06T20:48:08.407Z,29.20
2018-11-06T20:50:36.030Z,25.50
2018-11-06T20:53:04.464Z,27.63
2018-11-06T20:55:31.830Z,28.90
2018-11-06T20:57:59.200Z,28.23
2018-11-06T21:00:27.098Z,26.40
2018-11-06T21:02:54.696Z,29.33
2018-11-06T21:05:22.119Z,28.50
2018-11-06T21:07:49.478Z,29.27
2018-11-06T21:10:16.945Z,29.77
2018-11-06T21:12:44.410Z,30.97
2018-11-06T21:15:11.761Z,28.10
2018-11-06T21:17:39.326Z,29.30
2018-11-06T21:20:07.607Z,30.90
2018-11-06T21:22:34.980Z,29.60
2018-11-06T21:25:02.416Z,33.33
2018-11-06T21:27:29.780Z,28.80
2018-11-06T21:29:57.149Z,31.93
2018-11-06T21:32:24.482Z,29.17
2018-11-06T21:34:51.805Z,29.43
2018-11-06T21:37:19.197Z,30.80
2018-11-06T21:39:46.636Z,31.23
2018-11-06T21:42:14.010Z,30.13
2018-11-06T21:44:41.438Z,32.30
2018-11-06T21:47:08.771Z,32.57
2018-11-06T21:49:36.122Z,31.33
2018-11-06T21:52:03.503Z,34.73
2018-11-06T21:54:30.793Z,35.40
2018-11-06T21:56:58.152Z,34.03
2018-11-06T21:59:25.468Z,35.43
2018-11-06T22:01:52.824Z,40.50
2018-11-06T22:04:20.176Z,37.30
2018-11-06T22:06:47.505Z,37.33
2018-11-06T22:09:14.908Z,41.40
2018-11-06T22:11:42.261Z,33.33
2018-11-06T22:14:09.635Z,36.50
2018-11-06T22:16:36.969Z,36.07
2018-11-06T22:19:04.344Z,38.47
2018-11-06T22:21:31.714Z,39.10
2018-11-06T22:23:59.037Z,41.33
2018-11-06T22:26:26.384Z,43.43
2018-11-06T22:28:53.730Z,38.97
2018-11-06T22:31:21.148Z,34.33
2018-11-06T22:33:48.370Z,37.23
2018-11-06T22:36:15.708Z,39.37
2018-11-06T22:38:43.023Z,41.03
2018-11-06T22:41:10.356Z,41.10
2018-11-06T22:43:37.688Z,41.10
2018-11-06T22:46:05.042Z,36.67
2018-11-06T22:48:32.412Z,42.43
2018-11-06T22:50:59.753Z,47.60
2018-11-06T22:53:27.104Z,47.97
2018-11-06T22:55:54.462Z,38.70
2018-11-06T22:58:21.779Z,36.33
2018-11-06T23:00:49.108Z,40.90
2018-11-06T23:03:16.445Z,42.00
2018-11-06T23:05:43.800Z,40.03
2018-11-06T23:08:11.111Z,37.63
2018-11-06T23:10:38.467Z,45.97
2018-11-06T23:13:05.827Z,39.60
2018-11-06T23:15:33.167Z,43.57
2018-11-06T23:18:00.509Z,38.80
2018-11-06T23:20:27.897Z,41.93
2018-11-06T23:22:55.181Z,41.70
2018-11-06T23:25:22.507Z,41.17
2018-11-06T23:27:49.840Z,37.10
2018-11-06T23:30:17.168Z,44.40
2018-11-06T23:32:44.506Z,40.27
2018-11-06T23:35:11.885Z,37.50
2018-11-06T23:37:39.239Z,33.60
2018-11-06T23:40:06.593Z,34.90
2018-11-06T23:42:33.915Z,35.67
2018-11-06T23:45:01.244Z,34.83
2018-11-06T23:47:28.564Z,56.07
2018-11-06T23:49:55.907Z,109.93
2018-11-06T23:52:23.224Z,50.03
2018-11-06T23:54:50.569Z,36.43
2018-11-06T23:57:18.307Z,35.77
2018-11-06T23:59:45.631Z,34.10
